sensor_id;sensor_type;location;lat;lon;timestamp;P1;durP1;ratioP1;P2;durP2;ratioP2
11865;SDS011;5992;52.744;6.898;2023-03-01T00:01:57;7.60;;;4.77;;
11865;SDS011;5992;52.744;6.898;2023-03-01T00:05:12;5.87;;;4.70;;
11865;SDS011;5992;52.744;6.898;2023-03-01T00:08:13;6.50;;;4.85;;
11865;SDS011;5992;52.744;6.898;2023-03-01T00:11:39;6.90;;;5.10;;
11865;SDS011;5992;52.744;6.898;2023-03-01T00:14:40;7.23;;;5.23;;
11865;SDS011;5992;52.744;6.898;2023-03-01T00:17:52;5.80;;;4.40;;
11865;SDS011;5992;52.744;6.898;2023-03-01T00:20:53;6.07;;;4.80;;
11865;SDS011;5992;52.744;6.898;2023-03-01T00:24:18;6.20;;;5.00;;
11865;SDS011;5992;52.744;6.898;2023-03-01T00:27:30;7.45;;;5.10;;
11865;SDS011;5992;52.744;6.898;2023-03-01T00:30:44;7.37;;;5.03;;
11865;SDS011;5992;52.744;6.898;2023-03-01T00:33:59;6.70;;;4.50;;
11865;SDS011;5992;52.744;6.898;2023-03-01T00:37:22;6.00;;;4.40;;
11865;SDS011;5992;52.744;6.898;2023-03-01T00:40:38;5.80;;;4.73;;
11865;SDS011;5992;52.744;6.898;2023-03-01T00:44:03;6.10;;;5.15;;
11865;SDS011;5992;52.744;6.898;2023-03-01T00:47:04;7.43;;;5.33;;
11865;SDS011;5992;52.744;6.898;2023-03-01T00:50:16;5.15;;;4.65;;
11865;SDS011;5992;52.744;6.898;2023-03-01T00:53:28;7.10;;;5.13;;
11865;SDS011;5992;52.744;6.898;2023-03-01T00:56:41;7.90;;;5.27;;
11865;SDS011;5992;52.744;6.898;2023-03-01T00:59:54;6.93;;;5.47;;
11865;SDS011;5992;52.744;6.898;2023-03-01T01:03:18;8.85;;;5.80;;
11865;SDS011;5992;52.744;6.898;2023-03-01T01:06:19;7.40;;;5.55;;
11865;SDS011;5992;52.744;6.898;2023-03-01T01:09:42;6.65;;;4.75;;
11865;SDS011;5992;52.744;6.898;2023-03-01T01:12:59;6.60;;;5.07;;
11865;SDS011;5992;52.744;6.898;2023-03-01T01:16:24;7.90;;;5.43;;
11865;SDS011;5992;52.744;6.898;2023-03-01T01:19:35;7.13;;;5.77;;
11865;SDS011;5992;52.744;6.898;2023-03-01T01:23:00;7.90;;;5.00;;
11865;SDS011;5992;52.744;6.898;2023-03-01T01:26:04;7.65;;;6.05;;
11865;SDS011;5992;52.744;6.898;2023-03-01T01:29:31;7.30;;;5.30;;
11865;SDS011;5992;52.744;6.898;2023-03-01T01:32:42;7.80;;;5.37;;
11865;SDS011;5992;52.744;6.898;2023-03-01T01:36:06;7.33;;;5.67;;
11865;SDS011;5992;52.744;6.898;2023-03-01T01:39:18;6.40;;;5.33;;
11865;SDS011;5992;52.744;6.898;2023-03-01T01:42:31;8.33;;;5.60;;
11865;SDS011;5992;52.744;6.898;2023-03-01T01:45:45;8.65;;;6.00;;
11865;SDS011;5992;52.744;6.898;2023-03-01T01:49:24;7.40;;;5.20;;
11865;SDS011;5992;52.744;6.898;2023-03-01T01:52:35;10.17;;;6.30;;
11865;SDS011;5992;52.744;6.898;2023-03-01T01:56:00;7.83;;;5.57;;
11865;SDS011;5992;52.744;6.898;2023-03-01T01:59:11;8.13;;;5.83;;
11865;SDS011;5992;52.744;6.898;2023-03-01T02:02:40;8.33;;;5.93;;
11865;SDS011;5992;52.744;6.898;2023-03-01T02:06:06;7.20;;;5.50;;
11865;SDS011;5992;52.744;6.898;2023-03-01T02:09:18;7.50;;;6.00;;
11865;SDS011;5992;52.744;6.898;2023-03-01T02:12:42;9.07;;;5.90;;
11865;SDS011;5992;52.744;6.898;2023-03-01T02:16:08;7.10;;;6.13;;
11865;SDS011;5992;52.744;6.898;2023-03-01T02:19:38;9.17;;;6.37;;
11865;SDS011;5992;52.744;6.898;2023-03-01T02:22:47;8.77;;;6.50;;
11865;SDS011;5992;52.744;6.898;2023-03-01T02:26:16;8.50;;;5.80;;
11865;SDS011;5992;52.744;6.898;2023-03-01T02:29:29;8.57;;;6.40;;
11865;SDS011;5992;52.744;6.898;2023-03-01T02:32:55;9.87;;;6.37;;
11865;SDS011;5992;52.744;6.898;2023-03-01T02:36:08;10.03;;;6.63;;
11865;SDS011;5992;52.744;6.898;2023-03-01T02:39:31;8.00;;;6.60;;
11865;SDS011;5992;52.744;6.898;2023-03-01T02:42:45;7.60;;;5.80;;
11865;SDS011;5992;52.744;6.898;2023-03-01T02:46:14;7.73;;;6.20;;
11865;SDS011;5992;52.744;6.898;2023-03-01T02:49:22;8.40;;;6.47;;
11865;SDS011;5992;52.744;6.898;2023-03-01T02:52:47;8.17;;;5.47;;
11865;SDS011;5992;52.744;6.898;2023-03-01T02:56:11;8.10;;;6.03;;
11865;SDS011;5992;52.744;6.898;2023-03-01T02:59:36;7.50;;;6.07;;
11865;SDS011;5992;52.744;6.898;2023-03-01T03:02:53;9.00;;;6.07;;
11865;SDS011;5992;52.744;6.898;2023-03-01T03:06:16;11.05;;;6.90;;
11865;SDS011;5992;52.744;6.898;2023-03-01T03:09:29;8.05;;;6.30;;
11865;SDS011;5992;52.744;6.898;2023-03-01T03:12:41;7.47;;;6.47;;
11865;SDS011;5992;52.744;6.898;2023-03-01T03:16:05;9.73;;;7.20;;
11865;SDS011;5992;52.744;6.898;2023-03-01T03:19:20;10.03;;;6.53;;
11865;SDS011;5992;52.744;6.898;2023-03-01T03:22:33;9.50;;;6.90;;
11865;SDS011;5992;52.744;6.898;2023-03-01T03:25:47;8.57;;;6.90;;
11865;SDS011;5992;52.744;6.898;2023-03-01T03:28:59;8.00;;;6.10;;
11865;SDS011;5992;52.744;6.898;2023-03-01T03:32:11;7.43;;;6.33;;
11865;SDS011;5992;52.744;6.898;2023-03-01T03:35:12;7.30;;;6.00;;
11865;SDS011;5992;52.744;6.898;2023-03-01T03:38:37;9.70;;;6.90;;
11865;SDS011;5992;52.744;6.898;2023-03-01T03:41:49;9.87;;;6.57;;
11865;SDS011;5992;52.744;6.898;2023-03-01T03:45:05;9.10;;;6.60;;
11865;SDS011;5992;52.744;6.898;2023-03-01T03:48:07;8.90;;;6.33;;
11865;SDS011;5992;52.744;6.898;2023-03-01T03:51:37;8.37;;;6.23;;
11865;SDS011;5992;52.744;6.898;2023-03-01T03:54:50;8.47;;;6.50;;
11865;SDS011;5992;52.744;6.898;2023-03-01T03:58:03;10.07;;;6.70;;
11865;SDS011;5992;52.744;6.898;2023-03-01T04:01:05;9.53;;;6.37;;
11865;SDS011;5992;52.744;6.898;2023-03-01T04:04:32;9.70;;;6.27;;
11865;SDS011;5992;52.744;6.898;2023-03-01T04:07:33;9.37;;;6.50;;
11865;SDS011;5992;52.744;6.898;2023-03-01T04:10:57;8.83;;;6.53;;
11865;SDS011;5992;52.744;6.898;2023-03-01T04:14:27;7.63;;;6.47;;
11865;SDS011;5992;52.744;6.898;2023-03-01T04:17:40;9.30;;;7.10;;
11865;SDS011;5992;52.744;6.898;2023-03-01T04:20:40;9.80;;;6.70;;
11865;SDS011;5992;52.744;6.898;2023-03-01T04:24:05;7.30;;;6.40;;
11865;SDS011;5992;52.744;6.898;2023-03-01T04:27:18;8.43;;;6.67;;
11865;SDS011;5992;52.744;6.898;2023-03-01T04:30:31;10.00;;;6.70;;
11865;SDS011;5992;52.744;6.898;2023-03-01T04:33:43;9.67;;;6.17;;
11865;SDS011;5992;52.744;6.898;2023-03-01T04:37:07;10.60;;;6.87;;
11865;SDS011;5992;52.744;6.898;2023-03-01T04:40:09;8.60;;;6.93;;
11865;SDS011;5992;52.744;6.898;2023-03-01T04:43:34;7.23;;;6.53;;
11865;SDS011;5992;52.744;6.898;2023-03-01T04:46:48;8.10;;;6.50;;
11865;SDS011;5992;52.744;6.898;2023-03-01T04:50:16;8.87;;;6.73;;
11865;SDS011;5992;52.744;6.898;2023-03-01T04:53:30;9.60;;;6.87;;
11865;SDS011;5992;52.744;6.898;2023-03-01T04:56:43;8.90;;;6.10;;
11865;SDS011;5992;52.744;6.898;2023-03-01T04:59:59;10.20;;;6.83;;
11865;SDS011;5992;52.744;6.898;2023-03-01T05:03:11;15.20;;;6.43;;
11865;SDS011;5992;52.744;6.898;2023-03-01T05:06:11;8.65;;;6.65;;
11865;SDS011;5992;52.744;6.898;2023-03-01T05:09:35;9.40;;;6.90;;
11865;SDS011;5992;52.744;6.898;2023-03-01T05:12:37;7.87;;;6.30;;
11865;SDS011;5992;52.744;6.898;2023-03-01T05:16:02;8.97;;;6.00;;
11865;SDS011;5992;52.744;6.898;2023-03-01T05:19:14;8.83;;;6.17;;
11865;SDS011;5992;52.744;6.898;2023-03-01T05:22:27;9.73;;;6.73;;
11865;SDS011;5992;52.744;6.898;2023-03-01T05:25:27;8.63;;;6.37;;
11865;SDS011;5992;52.744;6.898;2023-03-01T05:28:40;9.33;;;6.83;;
11865;SDS011;5992;52.744;6.898;2023-03-01T05:31:58;8.67;;;7.13;;
11865;SDS011;5992;52.744;6.898;2023-03-01T05:35:21;8.70;;;6.37;;
11865;SDS011;5992;52.744;6.898;2023-03-01T05:38:21;8.93;;;6.30;;
11865;SDS011;5992;52.744;6.898;2023-03-01T05:41:45;9.50;;;7.30;;
11865;SDS011;5992;52.744;6.898;2023-03-01T05:44:46;11.03;;;7.33;;
11865;SDS011;5992;52.744;6.898;2023-03-01T05:48:11;7.73;;;6.27;;
11865;SDS011;5992;52.744;6.898;2023-03-01T05:51:35;8.20;;;6.63;;
11865;SDS011;5992;52.744;6.898;2023-03-01T05:54:47;8.90;;;6.73;;
11865;SDS011;5992;52.744;6.898;2023-03-01T05:57:47;9.23;;;6.53;;
11865;SDS011;5992;52.744;6.898;2023-03-01T06:01:13;11.13;;;7.57;;
11865;SDS011;5992;52.744;6.898;2023-03-01T06:04:39;8.43;;;6.30;;
11865;SDS011;5992;52.744;6.898;2023-03-01T06:07:39;9.50;;;7.07;;
11865;SDS011;5992;52.744;6.898;2023-03-01T06:11:03;9.00;;;6.07;;
11865;SDS011;5992;52.744;6.898;2023-03-01T06:14:05;10.93;;;6.87;;
11865;SDS011;5992;52.744;6.898;2023-03-01T06:17:30;8.30;;;6.23;;
11865;SDS011;5992;52.744;6.898;2023-03-01T06:20:45;8.57;;;6.50;;
11865;SDS011;5992;52.744;6.898;2023-03-01T06:24:09;8.50;;;6.70;;
11865;SDS011;5992;52.744;6.898;2023-03-01T06:27:09;10.90;;;6.97;;
11865;SDS011;5992;52.744;6.898;2023-03-01T06:30:25;10.20;;;6.73;;
11865;SDS011;5992;52.744;6.898;2023-03-01T06:33:38;9.33;;;7.20;;
11865;SDS011;5992;52.744;6.898;2023-03-01T06:37:05;10.97;;;7.40;;
11865;SDS011;5992;52.744;6.898;2023-03-01T06:40:20;10.67;;;6.83;;
11865;SDS011;5992;52.744;6.898;2023-03-01T06:43:32;9.50;;;7.33;;
11865;SDS011;5992;52.744;6.898;2023-03-01T06:46:32;10.23;;;6.90;;
11865;SDS011;5992;52.744;6.898;2023-03-01T06:49:46;9.63;;;6.53;;
11865;SDS011;5992;52.744;6.898;2023-03-01T06:53:01;11.07;;;7.00;;
11865;SDS011;5992;52.744;6.898;2023-03-01T06:56:26;10.30;;;6.93;;
11865;SDS011;5992;52.744;6.898;2023-03-01T06:59:26;10.20;;;7.10;;
11865;SDS011;5992;52.744;6.898;2023-03-01T07:02:38;10.93;;;7.67;;
11865;SDS011;5992;52.744;6.898;2023-03-01T07:05:40;8.67;;;6.50;;
11865;SDS011;5992;52.744;6.898;2023-03-01T07:09:04;9.90;;;6.85;;
11865;SDS011;5992;52.744;6.898;2023-03-01T07:12:16;12.80;;;8.10;;
11865;SDS011;5992;52.744;6.898;2023-03-01T07:15:28;15.83;;;9.50;;
11865;SDS011;5992;52.744;6.898;2023-03-01T07:18:28;14.50;;;9.77;;
11865;SDS011;5992;52.744;6.898;2023-03-01T07:21:42;14.73;;;9.63;;
11865;SDS011;5992;52.744;6.898;2023-03-01T07:24:55;18.23;;;9.73;;
11865;SDS011;5992;52.744;6.898;2023-03-01T07:28:07;11.53;;;7.97;;
11865;SDS011;5992;52.744;6.898;2023-03-01T07:31:19;16.17;;;10.03;;
11865;SDS011;5992;52.744;6.898;2023-03-01T07:34:31;13.27;;;8.47;;
11865;SDS011;5992;52.744;6.898;2023-03-01T07:37:45;12.77;;;9.43;;
11865;SDS011;5992;52.744;6.898;2023-03-01T07:41:09;11.67;;;8.43;;
11865;SDS011;5992;52.744;6.898;2023-03-01T07:44:18;18.87;;;9.03;;
11865;SDS011;5992;52.744;6.898;2023-03-01T07:47:30;13.37;;;9.13;;
11865;SDS011;5992;52.744;6.898;2023-03-01T07:50:30;14.17;;;10.13;;
11865;SDS011;5992;52.744;6.898;2023-03-01T07:53:46;17.37;;;9.40;;
11865;SDS011;5992;52.744;6.898;2023-03-01T07:56:58;15.47;;;10.20;;
11865;SDS011;5992;52.744;6.898;2023-03-01T08:00:14;15.53;;;10.57;;
11865;SDS011;5992;52.744;6.898;2023-03-01T08:03:26;15.40;;;9.90;;
11865;SDS011;5992;52.744;6.898;2023-03-01T08:06:26;17.00;;;10.13;;
11865;SDS011;5992;52.744;6.898;2023-03-01T08:09:40;16.50;;;9.63;;
11865;SDS011;5992;52.744;6.898;2023-03-01T08:12:52;16.73;;;10.53;;
11865;SDS011;5992;52.744;6.898;2023-03-01T08:16:06;15.80;;;10.53;;
11865;SDS011;5992;52.744;6.898;2023-03-01T08:19:20;13.83;;;10.47;;
11865;SDS011;5992;52.744;6.898;2023-03-01T08:22:32;16.83;;;10.93;;
11865;SDS011;5992;52.744;6.898;2023-03-01T08:25:34;13.87;;;9.23;;
11865;SDS011;5992;52.744;6.898;2023-03-01T08:28:59;13.37;;;9.47;;
11865;SDS011;5992;52.744;6.898;2023-03-01T08:32:10;13.45;;;9.05;;
11865;SDS011;5992;52.744;6.898;2023-03-01T08:35:26;11.80;;;8.50;;
11865;SDS011;5992;52.744;6.898;2023-03-01T08:38:25;12.70;;;8.30;;
11865;SDS011;5992;52.744;6.898;2023-03-01T08:41:40;12.37;;;7.47;;
11865;SDS011;5992;52.744;6.898;2023-03-01T08:44:56;10.97;;;7.43;;
11865;SDS011;5992;52.744;6.898;2023-03-01T08:48:08;9.70;;;7.20;;
11865;SDS011;5992;52.744;6.898;2023-03-01T08:51:08;7.73;;;6.80;;
11865;SDS011;5992;52.744;6.898;2023-03-01T08:54:32;9.23;;;6.77;;
11865;SDS011;5992;52.744;6.898;2023-03-01T08:57:33;7.30;;;5.50;;
11865;SDS011;5992;52.744;6.898;2023-03-01T09:01:04;6.93;;;5.30;;
11865;SDS011;5992;52.744;6.898;2023-03-01T09:04:14;12.00;;;6.83;;
11865;SDS011;5992;52.744;6.898;2023-03-01T09:07:37;12.03;;;8.93;;
11865;SDS011;5992;52.744;6.898;2023-03-01T09:10:37;14.10;;;8.90;;
11865;SDS011;5992;52.744;6.898;2023-03-01T09:14:04;13.07;;;8.27;;
11865;SDS011;5992;52.744;6.898;2023-03-01T09:17:15;15.93;;;10.20;;
11865;SDS011;5992;52.744;6.898;2023-03-01T09:20:27;19.93;;;10.97;;
11865;SDS011;5992;52.744;6.898;2023-03-01T09:23:27;19.33;;;11.47;;
11865;SDS011;5992;52.744;6.898;2023-03-01T09:26:40;22.30;;;13.03;;
11865;SDS011;5992;52.744;6.898;2023-03-01T09:29:41;16.85;;;11.75;;
11865;SDS011;5992;52.744;6.898;2023-03-01T09:33:05;19.73;;;10.50;;
11865;SDS011;5992;52.744;6.898;2023-03-01T09:36:06;14.43;;;10.50;;
11865;SDS011;5992;52.744;6.898;2023-03-01T09:39:30;12.60;;;7.93;;
11865;SDS011;5992;52.744;6.898;2023-03-01T09:42:30;18.90;;;9.20;;
11865;SDS011;5992;52.744;6.898;2023-03-01T09:45:55;9.23;;;7.03;;
11865;SDS011;5992;52.744;6.898;2023-03-01T09:49:10;7.80;;;5.17;;
11865;SDS011;5992;52.744;6.898;2023-03-01T09:52:36;7.43;;;5.67;;
11865;SDS011;5992;52.744;6.898;2023-03-01T09:55:50;7.33;;;5.40;;
11865;SDS011;5992;52.744;6.898;2023-03-01T09:59:19;6.80;;;4.70;;
11865;SDS011;5992;52.744;6.898;2023-03-01T10:02:32;3.83;;;2.63;;
11865;SDS011;5992;52.744;6.898;2023-03-01T10:05:56;7.73;;;4.10;;
11865;SDS011;5992;52.744;6.898;2023-03-01T10:09:10;4.45;;;3.85;;
11865;SDS011;5992;52.744;6.898;2023-03-01T10:12:34;4.97;;;3.37;;
11865;SDS011;5992;52.744;6.898;2023-03-01T10:15:48;3.45;;;2.10;;
11865;SDS011;5992;52.744;6.898;2023-03-01T10:19:15;3.70;;;3.20;;
11865;SDS011;5992;52.744;6.898;2023-03-01T10:22:28;2.97;;;2.77;;
11865;SDS011;5992;52.744;6.898;2023-03-01T10:25:57;4.90;;;2.70;;
11865;SDS011;5992;52.744;6.898;2023-03-01T10:29:11;4.30;;;3.10;;
11865;SDS011;5992;52.744;6.898;2023-03-01T10:32:35;3.65;;;3.05;;
11865;SDS011;5992;52.744;6.898;2023-03-01T10:35:36;3.20;;;2.87;;
11865;SDS011;5992;52.744;6.898;2023-03-01T10:39:01;3.33;;;2.67;;
11865;SDS011;5992;52.744;6.898;2023-03-01T10:42:18;2.93;;;2.63;;
11865;SDS011;5992;52.744;6.898;2023-03-01T10:45:42;3.87;;;2.17;;
11865;SDS011;5992;52.744;6.898;2023-03-01T10:48:42;3.97;;;2.50;;
11865;SDS011;5992;52.744;6.898;2023-03-01T10:52:10;3.77;;;2.23;;
11865;SDS011;5992;52.744;6.898;2023-03-01T10:55:22;4.50;;;2.70;;
11865;SDS011;5992;52.744;6.898;2023-03-01T10:58:56;5.33;;;2.73;;
11865;SDS011;5992;52.744;6.898;2023-03-01T11:02:15;4.43;;;2.97;;
11865;SDS011;5992;52.744;6.898;2023-03-01T11:05:50;6.67;;;2.77;;
11865;SDS011;5992;52.744;6.898;2023-03-01T11:09:12;3.67;;;2.80;;
11865;SDS011;5992;52.744;6.898;2023-03-01T11:12:28;6.45;;;2.90;;
11865;SDS011;5992;52.744;6.898;2023-03-01T11:15:28;2.50;;;2.30;;
11865;SDS011;5992;52.744;6.898;2023-03-01T11:18:40;4.53;;;2.73;;
11865;SDS011;5992;52.744;6.898;2023-03-01T11:21:54;4.27;;;3.37;;
11865;SDS011;5992;52.744;6.898;2023-03-01T11:25:12;4.33;;;3.47;;
11865;SDS011;5992;52.744;6.898;2023-03-01T11:28:25;4.77;;;3.67;;
11865;SDS011;5992;52.744;6.898;2023-03-01T11:31:50;5.30;;;3.23;;
11865;SDS011;5992;52.744;6.898;2023-03-01T11:35:05;5.65;;;3.60;;
11865;SDS011;5992;52.744;6.898;2023-03-01T11:38:28;5.43;;;3.93;;
11865;SDS011;5992;52.744;6.898;2023-03-01T11:41:41;5.33;;;3.70;;
11865;SDS011;5992;52.744;6.898;2023-03-01T11:45:10;6.15;;;4.15;;
11865;SDS011;5992;52.744;6.898;2023-03-01T11:48:25;4.70;;;4.00;;
11865;SDS011;5992;52.744;6.898;2023-03-01T11:51:49;4.23;;;3.70;;
11865;SDS011;5992;52.744;6.898;2023-03-01T11:55:08;5.10;;;3.95;;
11865;SDS011;5992;52.744;6.898;2023-03-01T11:58:38;5.05;;;3.90;;
11865;SDS011;5992;52.744;6.898;2023-03-01T12:02:00;4.00;;;3.20;;
11865;SDS011;5992;52.744;6.898;2023-03-01T12:05:38;3.87;;;2.90;;
11865;SDS011;5992;52.744;6.898;2023-03-01T12:08:37;6.10;;;3.80;;
11865;SDS011;5992;52.744;6.898;2023-03-01T12:12:25;6.03;;;3.97;;
11865;SDS011;5992;52.744;6.898;2023-03-01T12:15:45;7.87;;;4.10;;
11865;SDS011;5992;52.744;6.898;2023-03-01T12:19:28;5.97;;;3.60;;
11865;SDS011;5992;52.744;6.898;2023-03-01T12:22:43;4.23;;;3.33;;
11865;SDS011;5992;52.744;6.898;2023-03-01T12:26:06;6.50;;;4.43;;
11865;SDS011;5992;52.744;6.898;2023-03-01T12:29:23;4.60;;;4.10;;
11865;SDS011;5992;52.744;6.898;2023-03-01T12:32:51;7.20;;;4.10;;
11865;SDS011;5992;52.744;6.898;2023-03-01T12:39:40;4.90;;;3.43;;
11865;SDS011;5992;52.744;6.898;2023-03-01T12:42:54;5.77;;;4.03;;
11865;SDS011;5992;52.744;6.898;2023-03-01T12:46:26;4.93;;;3.37;;
11865;SDS011;5992;52.744;6.898;2023-03-01T12:49:40;5.47;;;4.03;;
11865;SDS011;5992;52.744;6.898;2023-03-01T12:53:03;5.15;;;3.95;;
11865;SDS011;5992;52.744;6.898;2023-03-01T12:56:16;6.17;;;4.37;;
11865;SDS011;5992;52.744;6.898;2023-03-01T12:59:41;6.27;;;3.90;;
11865;SDS011;5992;52.744;6.898;2023-03-01T13:02:54;5.57;;;4.47;;
11865;SDS011;5992;52.744;6.898;2023-03-01T13:06:20;7.77;;;4.17;;
11865;SDS011;5992;52.744;6.898;2023-03-01T13:09:34;5.00;;;4.47;;
11865;SDS011;5992;52.744;6.898;2023-03-01T13:13:08;6.90;;;4.30;;
11865;SDS011;5992;52.744;6.898;2023-03-01T13:16:27;6.30;;;4.50;;
11865;SDS011;5992;52.744;6.898;2023-03-01T13:19:55;5.67;;;4.70;;
11865;SDS011;5992;52.744;6.898;2023-03-01T13:23:09;5.67;;;4.03;;
11865;SDS011;5992;52.744;6.898;2023-03-01T13:26:33;5.67;;;4.40;;
11865;SDS011;5992;52.744;6.898;2023-03-01T13:29:45;5.90;;;4.20;;
11865;SDS011;5992;52.744;6.898;2023-03-01T13:33:33;7.23;;;4.43;;
11865;SDS011;5992;52.744;6.898;2023-03-01T13:36:45;7.95;;;5.30;;
11865;SDS011;5992;52.744;6.898;2023-03-01T13:43:31;6.23;;;4.73;;
11865;SDS011;5992;52.744;6.898;2023-03-01T13:46:56;6.87;;;4.77;;
11865;SDS011;5992;52.744;6.898;2023-03-01T13:50:15;11.15;;;5.45;;
11865;SDS011;5992;52.744;6.898;2023-03-01T13:53:40;7.10;;;5.00;;
11865;SDS011;5992;52.744;6.898;2023-03-01T13:56:51;8.50;;;4.45;;
11865;SDS011;5992;52.744;6.898;2023-03-01T14:00:29;7.00;;;5.20;;
11865;SDS011;5992;52.744;6.898;2023-03-01T14:03:53;8.67;;;4.27;;
11865;SDS011;5992;52.744;6.898;2023-03-01T14:07:11;6.83;;;5.43;;
11865;SDS011;5992;52.744;6.898;2023-03-01T14:10:36;7.03;;;4.50;;
11865;SDS011;5992;52.744;6.898;2023-03-01T14:13:54;4.83;;;3.67;;
11865;SDS011;5992;52.744;6.898;2023-03-01T14:17:24;6.37;;;4.90;;
11865;SDS011;5992;52.744;6.898;2023-03-01T14:20:38;6.60;;;5.00;;
11865;SDS011;5992;52.744;6.898;2023-03-01T14:24:03;8.57;;;5.67;;
11865;SDS011;5992;52.744;6.898;2023-03-01T14:27:04;7.10;;;5.40;;
11865;SDS011;5992;52.744;6.898;2023-03-01T14:30:30;7.77;;;5.87;;
11865;SDS011;5992;52.744;6.898;2023-03-01T14:33:43;9.15;;;6.40;;
11865;SDS011;5992;52.744;6.898;2023-03-01T14:37:11;8.90;;;6.33;;
11865;SDS011;5992;52.744;6.898;2023-03-01T14:40:24;8.30;;;6.30;;
11865;SDS011;5992;52.744;6.898;2023-03-01T14:43:49;10.03;;;6.43;;
11865;SDS011;5992;52.744;6.898;2023-03-01T14:47:00;7.30;;;6.20;;
11865;SDS011;5992;52.744;6.898;2023-03-01T14:50:29;7.67;;;5.07;;
11865;SDS011;5992;52.744;6.898;2023-03-01T14:53:41;8.55;;;6.00;;
11865;SDS011;5992;52.744;6.898;2023-03-01T14:57:12;7.87;;;5.80;;
11865;SDS011;5992;52.744;6.898;2023-03-01T15:00:25;10.40;;;6.27;;
11865;SDS011;5992;52.744;6.898;2023-03-01T15:03:48;13.25;;;6.60;;
11865;SDS011;5992;52.744;6.898;2023-03-01T15:07:01;10.93;;;6.63;;
11865;SDS011;5992;52.744;6.898;2023-03-01T15:10:28;7.80;;;5.87;;
11865;SDS011;5992;52.744;6.898;2023-03-01T15:13:39;8.40;;;5.87;;
11865;SDS011;5992;52.744;6.898;2023-03-01T15:17:03;9.17;;;6.40;;
11865;SDS011;5992;52.744;6.898;2023-03-01T15:20:16;8.47;;;6.30;;
11865;SDS011;5992;52.744;6.898;2023-03-01T15:23:41;8.27;;;5.83;;
11865;SDS011;5992;52.744;6.898;2023-03-01T15:26:55;10.40;;;5.93;;
11865;SDS011;5992;52.744;6.898;2023-03-01T15:30:20;11.77;;;5.90;;
11865;SDS011;5992;52.744;6.898;2023-03-01T15:33:35;6.75;;;5.75;;
11865;SDS011;5992;52.744;6.898;2023-03-01T15:36:59;7.25;;;5.65;;
11865;SDS011;5992;52.744;6.898;2023-03-01T15:40:20;10.50;;;6.00;;
11865;SDS011;5992;52.744;6.898;2023-03-01T15:43:45;8.03;;;6.23;;
11865;SDS011;5992;52.744;6.898;2023-03-01T15:46:56;5.87;;;4.73;;
11865;SDS011;5992;52.744;6.898;2023-03-01T15:50:24;6.33;;;5.67;;
11865;SDS011;5992;52.744;6.898;2023-03-01T15:53:39;9.30;;;6.05;;
11865;SDS011;5992;52.744;6.898;2023-03-01T15:57:04;9.90;;;6.50;;
11865;SDS011;5992;52.744;6.898;2023-03-01T16:00:17;8.20;;;5.50;;
11865;SDS011;5992;52.744;6.898;2023-03-01T16:03:30;8.30;;;6.07;;
11865;SDS011;5992;52.744;6.898;2023-03-01T16:06:30;8.80;;;6.47;;
11865;SDS011;5992;52.744;6.898;2023-03-01T16:09:45;9.00;;;6.25;;
11865;SDS011;5992;52.744;6.898;2023-03-01T16:12:58;10.23;;;5.70;;
11865;SDS011;5992;52.744;6.898;2023-03-01T16:16:23;8.60;;;6.10;;
11865;SDS011;5992;52.744;6.898;2023-03-01T16:19:35;8.37;;;6.07;;
11865;SDS011;5992;52.744;6.898;2023-03-01T16:22:59;10.43;;;5.63;;
11865;SDS011;5992;52.744;6.898;2023-03-01T16:26:14;7.90;;;5.90;;
11865;SDS011;5992;52.744;6.898;2023-03-01T16:29:39;5.67;;;5.13;;
11865;SDS011;5992;52.744;6.898;2023-03-01T16:32:52;6.90;;;5.05;;
11865;SDS011;5992;52.744;6.898;2023-03-01T16:36:18;6.23;;;5.03;;
11865;SDS011;5992;52.744;6.898;2023-03-01T16:39:29;7.07;;;5.20;;
11865;SDS011;5992;52.744;6.898;2023-03-01T16:42:45;5.80;;;5.20;;
11865;SDS011;5992;52.744;6.898;2023-03-01T16:45:46;6.03;;;5.27;;
11865;SDS011;5992;52.744;6.898;2023-03-01T16:49:11;7.47;;;5.60;;
11865;SDS011;5992;52.744;6.898;2023-03-01T16:52:11;9.70;;;5.70;;
11865;SDS011;5992;52.744;6.898;2023-03-01T16:55:23;5.90;;;5.15;;
11865;SDS011;5992;52.744;6.898;2023-03-01T16:58:23;8.05;;;6.60;;
11865;SDS011;5992;52.744;6.898;2023-03-01T17:01:49;10.63;;;6.13;;
11865;SDS011;5992;52.744;6.898;2023-03-01T17:05:02;7.70;;;6.30;;
11865;SDS011;5992;52.744;6.898;2023-03-01T17:08:26;9.07;;;6.73;;
11865;SDS011;5992;52.744;6.898;2023-03-01T17:11:26;8.47;;;6.40;;
11865;SDS011;5992;52.744;6.898;2023-03-01T17:14:38;8.33;;;6.53;;
11865;SDS011;5992;52.744;6.898;2023-03-01T17:17:51;9.27;;;6.07;;
11865;SDS011;5992;52.744;6.898;2023-03-01T17:21:17;10.13;;;7.37;;
11865;SDS011;5992;52.744;6.898;2023-03-01T17:24:31;10.83;;;7.13;;
11865;SDS011;5992;52.744;6.898;2023-03-01T17:27:55;9.10;;;6.90;;
11865;SDS011;5992;52.744;6.898;2023-03-01T17:30:55;10.50;;;7.27;;
11865;SDS011;5992;52.744;6.898;2023-03-01T17:34:09;8.90;;;7.45;;
11865;SDS011;5992;52.744;6.898;2023-03-01T17:37:24;9.93;;;7.00;;
11865;SDS011;5992;52.744;6.898;2023-03-01T17:40:42;11.20;;;7.20;;
11865;SDS011;5992;52.744;6.898;2023-03-01T17:43:54;9.20;;;6.77;;
11865;SDS011;5992;52.744;6.898;2023-03-01T17:47:06;9.63;;;7.53;;
11865;SDS011;5992;52.744;6.898;2023-03-01T17:50:09;10.60;;;7.77;;
11865;SDS011;5992;52.744;6.898;2023-03-01T17:53:36;10.23;;;7.80;;
11865;SDS011;5992;52.744;6.898;2023-03-01T17:56:48;10.60;;;7.73;;
11865;SDS011;5992;52.744;6.898;2023-03-01T18:00:13;11.80;;;8.13;;
11865;SDS011;5992;52.744;6.898;2023-03-01T18:03:37;9.80;;;8.53;;
11865;SDS011;5992;52.744;6.898;2023-03-01T18:06:54;11.83;;;8.30;;
11865;SDS011;5992;52.744;6.898;2023-03-01T18:10:19;12.17;;;9.23;;
11865;SDS011;5992;52.744;6.898;2023-03-01T18:13:42;10.53;;;8.10;;
11865;SDS011;5992;52.744;6.898;2023-03-01T18:17:07;10.30;;;7.95;;
11865;SDS011;5992;52.744;6.898;2023-03-01T18:20:08;13.55;;;8.25;;
11865;SDS011;5992;52.744;6.898;2023-03-01T18:23:34;13.13;;;8.30;;
11865;SDS011;5992;52.744;6.898;2023-03-01T18:26:46;12.13;;;9.23;;
11865;SDS011;5992;52.744;6.898;2023-03-01T18:29:58;13.13;;;9.00;;
11865;SDS011;5992;52.744;6.898;2023-03-01T18:32:58;11.27;;;8.57;;
11865;SDS011;5992;52.744;6.898;2023-03-01T18:36:16;10.95;;;8.55;;
11865;SDS011;5992;52.744;6.898;2023-03-01T18:39:29;13.50;;;9.97;;
11865;SDS011;5992;52.744;6.898;2023-03-01T18:42:52;13.97;;;9.47;;
11865;SDS011;5992;52.744;6.898;2023-03-01T18:46:04;11.90;;;8.47;;
11865;SDS011;5992;52.744;6.898;2023-03-01T18:49:17;13.40;;;9.67;;
11865;SDS011;5992;52.744;6.898;2023-03-01T18:52:29;17.90;;;9.95;;
11865;SDS011;5992;52.744;6.898;2023-03-01T18:55:43;17.10;;;9.50;;
11865;SDS011;5992;52.744;6.898;2023-03-01T18:58:55;15.15;;;9.75;;
11865;SDS011;5992;52.744;6.898;2023-03-01T19:02:11;13.40;;;9.60;;
11865;SDS011;5992;52.744;6.898;2023-03-01T19:05:27;14.03;;;9.60;;
11865;SDS011;5992;52.744;6.898;2023-03-01T19:08:51;14.37;;;9.90;;
11865;SDS011;5992;52.744;6.898;2023-03-01T19:12:05;13.43;;;9.27;;
11865;SDS011;5992;52.744;6.898;2023-03-01T19:15:29;14.90;;;10.77;;
11865;SDS011;5992;52.744;6.898;2023-03-01T19:18:29;16.40;;;10.35;;
11865;SDS011;5992;52.744;6.898;2023-03-01T19:21:41;12.90;;;9.35;;
11865;SDS011;5992;52.744;6.898;2023-03-01T19:24:42;12.90;;;10.20;;
11865;SDS011;5992;52.744;6.898;2023-03-01T19:28:00;18.30;;;12.20;;
11865;SDS011;5992;52.744;6.898;2023-03-01T19:31:16;17.13;;;11.93;;
11865;SDS011;5992;52.744;6.898;2023-03-01T19:34:43;17.20;;;12.30;;
11865;SDS011;5992;52.744;6.898;2023-03-01T19:37:48;14.87;;;11.50;;
11865;SDS011;5992;52.744;6.898;2023-03-01T19:41:02;18.13;;;12.33;;
11865;SDS011;5992;52.744;6.898;2023-03-01T19:44:16;16.90;;;12.90;;
11865;SDS011;5992;52.744;6.898;2023-03-01T19:47:41;18.57;;;13.03;;
11865;SDS011;5992;52.744;6.898;2023-03-01T19:50:41;17.13;;;13.40;;
11865;SDS011;5992;52.744;6.898;2023-03-01T19:54:06;20.70;;;12.50;;
11865;SDS011;5992;52.744;6.898;2023-03-01T19:57:18;19.03;;;13.70;;
11865;SDS011;5992;52.744;6.898;2023-03-01T20:00:32;21.45;;;13.40;;